Time;durP1;ratioP1;P1;durP2;ratioP2;P2;SDS_P1;SDS_P2;PMS_P1;PMS_P2;Temp;Humidity;BMP_temperature;BMP_pressure;BME280_temperature;BME280_humidity;BME280_pressure;Samples;Min_cycle;Max_cycle;Signal;HPM_P1;HPM_P2
2021/12/21 00:00:12;;;;;;;19.53;9.83;;;-0.10;99.90;;;;;;5016529;28;20171;-74
2021/12/21 00:02:39;;;;;;;15.13;9.40;;;-0.10;99.90;;;;;;5016851;28;20187;-74
2021/12/21 00:05:05;;;;;;;18.67;8.83;;;-0.10;99.90;;;;;;5016349;28;20257;-74
2021/12/21 00:07:31;;;;;;;17.43;9.47;;;-0.20;99.90;;;;;;4998728;28;20217;-74
2021/12/21 00:09:56;;;;;;;14.40;9.30;;;-0.20;99.90;;;;;;5016524;28;20659;-74
2021/12/21 00:12:25;;;;;;;14.37;9.07;;;-0.20;99.90;;;;;;4998604;28;20597;-74
2021/12/21 00:15:01;;;;;;;15.93;8.97;;;-0.20;99.90;;;;;;5016327;28;20175;-74
2021/12/21 00:20:24;;;;;;;15.33;8.47;;;-0.20;99.90;;;;;;5016200;28;20182;-74
2021/12/21 00:25:20;;;;;;;11.80;8.20;;;-0.10;99.90;;;;;;5015869;28;20626;-74
2021/12/21 00:27:48;;;;;;;13.27;7.30;;;-0.20;99.90;;;;;;5015888;28;20199;-74
2021/12/21 00:30:14;;;;;;;14.37;8.50;;;-0.30;99.90;;;;;;5015993;28;20209;-74
2021/12/21 00:32:40;;;;;;;13.03;7.73;;;-0.30;99.90;;;;;;4998273;28;20179;-75
2021/12/21 00:35:07;;;;;;;14.60;8.17;;;-0.30;99.90;;;;;;5016306;28;20174;-74
2021/12/21 00:37:33;;;;;;;14.83;8.30;;;-0.30;99.90;;;;;;5016196;28;20203;-75
2021/12/21 00:39:59;;;;;;;12.57;8.70;;;-0.30;99.90;;;;;;5015905;28;20210;-74
2021/12/21 00:42:25;;;;;;;12.50;8.17;;;-0.30;99.90;;;;;;5015666;28;20214;-74
2021/12/21 00:44:51;;;;;;;13.77;7.50;;;-0.30;99.90;;;;;;4998095;28;20185;-74
2021/12/21 00:47:17;;;;;;;14.33;8.33;;;-0.30;99.90;;;;;;5015662;28;20206;-74
2021/12/21 00:49:57;;;;;;;10.03;7.07;;;-0.30;99.90;;;;;;5015547;28;20684;-74
2021/12/21 00:52:22;;;;;;;13.40;7.40;;;-0.30;99.90;;;;;;5015829;28;20171;-73
2021/12/21 00:54:48;;;;;;;9.53;7.50;;;-0.30;99.90;;;;;;5015337;28;20236;-74
2021/12/21 00:57:14;;;;;;;13.80;7.30;;;-0.30;99.90;;;;;;5015472;28;20198;-74
2021/12/21 00:59:39;;;;;;;11.30;6.83;;;-0.30;99.90;;;;;;4998422;28;20186;-74
2021/12/21 01:02:06;;;;;;;11.17;6.77;;;-0.30;99.90;;;;;;5015461;28;20261;-74
2021/12/21 01:04:38;;;;;;;11.63;7.30;;;-0.40;99.90;;;;;;5015719;28;20257;-74
2021/12/21 01:07:18;;;;;;;11.63;7.43;;;-0.40;99.90;;;;;;5014828;28;20210;-74
2021/12/21 01:10:24;;;;;;;10.30;6.37;;;0.20;99.90;;;;;;5015354;28;20179;-74
2021/12/21 01:18:14;;;;;;;8.67;6.87;;;-0.40;99.90;;;;;;5015494;28;20179;-74
2021/12/21 01:20:50;;;;;;;13.97;6.47;;;-0.40;99.90;;;;;;5015044;28;20207;-75
2021/12/21 01:26:05;;;;;;;11.60;6.50;;;-0.40;99.90;;;;;;5014852;28;20230;-75
2021/12/21 01:31:23;;;;;;;9.43;6.53;;;-0.40;99.90;;;;;;5015125;28;20260;-74
2021/12/21 01:36:44;;;;;;;12.17;6.70;;;-0.50;99.90;;;;;;5015313;28;20727;-74
2021/12/21 01:51:58;;;;;;;10.33;6.97;;;-0.70;99.90;;;;;;5014495;28;20194;-74
2021/12/21 01:54:24;;;;;;;14.03;7.23;;;-0.70;99.90;;;;;;5014408;28;20674;-73
2021/12/21 01:56:50;;;;;;;10.80;7.37;;;-0.70;99.90;;;;;;5014168;28;20563;-73
2021/12/21 01:59:15;;;;;;;9.47;7.07;;;-0.70;99.90;;;;;;4996701;28;20265;-74
2021/12/21 02:01:41;;;;;;;9.67;7.57;;;-0.70;99.90;;;;;;5014278;28;20206;-74
2021/12/21 02:04:08;;;;;;;14.40;7.03;;;-0.70;99.90;;;;;;4997288;28;20178;-74
2021/12/21 02:06:34;;;;;;;8.70;6.37;;;-0.60;99.90;;;;;;4996465;28;20202;-74
2021/12/21 02:09:00;;;;;;;10.77;6.53;;;-0.60;99.90;;;;;;5014202;28;20204;-74
2021/12/21 02:11:29;;;;;;;12.70;7.23;;;-0.70;99.90;;;;;;5014072;28;20171;-74
2021/12/21 02:13:54;;;;;;;10.87;7.00;;;-0.70;99.90;;;;;;5014076;28;20171;-74
2021/12/21 02:16:37;;;;;;;11.23;7.17;;;-0.70;99.90;;;;;;5014044;28;20194;-74
2021/12/21 02:19:09;;;;;;;9.23;7.40;;;-0.70;99.90;;;;;;4995648;28;20178;-74
2021/12/21 02:21:43;;;;;;;11.37;7.60;;;-0.70;99.90;;;;;;5014082;28;20211;-74
2021/12/21 02:24:14;;;;;;;14.23;7.90;;;-0.80;99.90;;;;;;5013904;28;20225;-74
2021/12/21 02:26:48;;;;;;;11.37;7.63;;;-0.80;99.90;;;;;;5013762;28;20222;-74
2021/12/21 02:29:17;;;;;;;17.00;8.03;;;-0.80;99.90;;;;;;5013884;28;20221;-74
2021/12/21 02:31:50;;;;;;;8.37;6.97;;;-0.70;99.90;;;;;;5013862;28;20253;-74
2021/12/21 02:34:20;;;;;;;13.83;7.60;;;-0.70;99.90;;;;;;5015309;28;20191;-74
2021/12/21 02:36:49;;;;;;;12.17;7.17;;;-0.70;99.90;;;;;;5031358;28;20194;-73
2021/12/21 02:39:16;;;;;;;10.63;7.40;;;-0.60;99.90;;;;;;5031415;28;20199;-75
2021/12/21 02:41:43;;;;;;;10.47;7.57;;;-0.70;99.90;;;;;;5032551;28;20172;-72
2021/12/21 02:44:11;;;;;;;14.03;7.60;;;-0.70;99.90;;;;;;5015504;28;20173;-72
2021/12/21 02:46:39;;;;;;;10.10;7.33;;;-0.70;99.90;;;;;;5005462;28;20259;-74
2021/12/21 02:49:06;;;;;;;11.67;7.97;;;-0.70;99.90;;;;;;5030757;28;20240;-74
2021/12/21 02:51:32;;;;;;;10.97;7.50;;;-0.70;99.90;;;;;;5029693;28;20585;-74
2021/12/21 02:53:58;;;;;;;9.83;7.47;;;-0.80;99.90;;;;;;5027501;28;20181;-75
2021/12/21 02:56:24;;;;;;;13.40;8.13;;;-0.80;99.90;;;;;;5031130;28;20193;-74
2021/12/21 02:58:49;;;;;;;14.30;8.13;;;-0.80;99.90;;;;;;5032425;28;20227;-74
2021/12/21 03:01:15;;;;;;;13.10;8.37;;;-0.80;99.90;;;;;;5032621;28;20258;-74
2021/12/21 03:03:41;;;;;;;10.90;7.77;;;-0.80;99.90;;;;;;5028031;28;20284;-74
2021/12/21 03:06:13;;;;;;;11.17;7.23;;;-0.80;99.90;;;;;;5030548;28;20355;-74
2021/12/21 03:08:43;;;;;;;14.37;8.23;;;-0.80;99.90;;;;;;5027237;28;20189;-73
2021/12/21 03:11:18;;;;;;;11.93;8.23;;;-0.80;99.90;;;;;;5030077;28;20303;-74
2021/12/21 03:13:54;;;;;;;10.70;7.60;;;-0.80;99.90;;;;;;5012049;28;20568;-75
2021/12/21 03:16:20;;;;;;;8.80;7.93;;;-0.90;99.90;;;;;;5030518;28;20189;-74
2021/12/21 03:18:47;;;;;;;17.43;9.07;;;-0.90;99.90;;;;;;5013190;28;20172;-75
2021/12/21 03:21:13;;;;;;;13.70;9.70;;;-0.90;99.90;;;;;;5013268;28;20201;-74
2021/12/21 03:23:40;;;;;;;15.60;8.03;;;-0.90;99.90;;;;;;4997658;28;20272;-74
2021/12/21 03:26:07;;;;;;;12.50;8.27;;;-1.00;99.90;;;;;;4997401;28;20564;-74
2021/12/21 03:28:33;;;;;;;17.60;9.13;;;-1.00;99.90;;;;;;5020463;28;20237;-75
2021/12/21 03:30:59;;;;;;;11.57;8.30;;;-1.00;99.90;;;;;;5010943;28;20194;-74
2021/12/21 03:33:24;;;;;;;15.00;9.00;;;-1.00;99.90;;;;;;5016702;28;20162;-74
2021/12/21 03:35:50;;;;;;;17.97;9.17;;;-1.00;99.90;;;;;;4999342;28;20198;-75
2021/12/21 03:38:16;;;;;;;13.17;8.63;;;-1.00;99.90;;;;;;4999772;28;20183;-75
2021/12/21 03:40:43;;;;;;;11.97;8.90;;;-0.90;99.90;;;;;;5016141;28;20229;-74
2021/12/21 03:43:10;;;;;;;15.83;9.57;;;-1.00;99.90;;;;;;5004983;28;20518;-74
2021/12/21 03:45:41;;;;;;;11.53;8.30;;;-1.00;99.90;;;;;;4999168;28;20205;-74
2021/12/21 03:48:07;;;;;;;13.67;8.97;;;-1.00;99.90;;;;;;5016773;28;20248;-74
2021/12/21 03:50:32;;;;;;;14.27;9.83;;;-1.00;99.90;;;;;;5016796;28;20174;-74
2021/12/21 03:52:58;;;;;;;16.87;9.87;;;-1.10;99.90;;;;;;5016786;28;20178;-74
2021/12/21 03:55:24;;;;;;;30.63;17.17;;;-1.10;99.90;;;;;;5016569;28;20197;-74
2021/12/21 03:57:49;;;;;;;24.40;14.03;;;-1.10;99.90;;;;;;5016500;28;20185;-74
2021/12/21 04:00:18;;;;;;;18.50;11.07;;;-1.10;99.90;;;;;;5016496;28;20211;-74
2021/12/21 04:02:43;;;;;;;27.30;13.63;;;-1.20;99.90;;;;;;4998953;28;20202;-74
2021/12/21 04:05:09;;;;;;;22.13;12.03;;;-1.10;99.90;;;;;;5016473;28;20661;-74
2021/12/21 04:07:35;;;;;;;50.07;23.90;;;-1.20;99.90;;;;;;4998900;28;20193;-74
2021/12/21 04:10:00;;;;;;;14.03;10.40;;;-1.20;99.90;;;;;;5016463;28;20514;-74
2021/12/21 04:12:26;;;;;;;16.47;11.90;;;-1.20;99.90;;;;;;5016240;28;20224;-73
2021/12/21 04:14:53;;;;;;;14.53;10.10;;;-1.20;99.90;;;;;;5016462;28;20206;-73
2021/12/21 04:17:23;;;;;;;14.97;10.43;;;-1.30;99.90;;;;;;5016117;28;20190;-74
2021/12/21 04:19:50;;;;;;;19.43;10.77;;;-1.30;99.90;;;;;;5016390;28;20546;-73
2021/12/21 04:22:16;;;;;;;15.47;10.00;;;-1.20;99.90;;;;;;5016274;28;20180;-73
2021/12/21 04:24:42;;;;;;;14.87;9.47;;;-1.20;99.90;;;;;;5016229;28;20773;-73
2021/12/21 04:27:08;;;;;;;14.60;10.43;;;-1.20;99.90;;;;;;4998185;28;20230;-74
2021/12/21 04:29:37;;;;;;;16.80;10.33;;;-1.20;99.90;;;;;;5042189;22;20233;-75
2021/12/21 04:32:04;;;;;;;16.33;10.97;;;-1.30;99.90;;;;;;5027056;28;20190;-75
2021/12/21 04:34:31;;;;;;;13.53;10.30;;;-1.30;99.90;;;;;;5027301;28;20245;-76
2021/12/21 04:36:57;;;;;;;19.27;10.93;;;-1.30;99.90;;;;;;5026749;28;20173;-75
2021/12/21 04:41:54;;;;;;;19.17;11.23;;;-0.80;99.90;;;;;;5026311;28;20189;-76
2021/12/21 04:44:20;;;;;;;16.00;10.50;;;-0.80;99.90;;;;;;5026141;28;20658;-77
2021/12/21 04:46:45;;;;;;;14.57;10.87;;;-1.40;99.90;;;;;;5026946;28;20188;-75
2021/12/21 04:49:11;;;;;;;17.43;10.50;;;-1.40;99.90;;;;;;5025989;28;20308;-78
2021/12/21 04:51:37;;;;;;;15.00;10.97;;;-1.40;99.90;;;;;;5025520;28;20197;-76
2021/12/21 04:54:02;;;;;;;14.83;10.87;;;-1.40;99.90;;;;;;5026590;28;20183;-76
2021/12/21 04:56:28;;;;;;;12.33;10.63;;;-1.20;99.90;;;;;;5024959;28;20174;-77
2021/12/21 04:58:54;;;;;;;16.10;10.23;;;-0.90;99.90;;;;;;5026898;28;20182;-74
2021/12/21 05:01:19;;;;;;;15.47;11.13;;;-1.40;99.90;;;;;;5007222;28;20232;-77
2021/12/21 05:03:45;;;;;;;16.53;10.80;;;-1.40;99.90;;;;;;5029170;28;20219;-76
2021/12/21 05:06:13;;;;;;;18.43;11.30;;;-0.90;99.90;;;;;;5026333;28;20182;-76
2021/12/21 05:08:40;;;;;;;18.97;11.73;;;-1.40;99.90;;;;;;5007377;28;20194;-76
2021/12/21 05:11:06;;;;;;;14.80;11.00;;;-1.20;99.90;;;;;;5008952;28;20194;-76
2021/12/21 05:13:35;;;;;;;16.83;10.43;;;-0.90;99.90;;;;;;5026556;28;20515;-76
2021/12/21 05:16:01;;;;;;;15.10;11.07;;;-1.40;99.90;;;;;;5023147;28;20188;-76
2021/12/21 05:18:27;;;;;;;17.17;10.53;;;-1.40;99.90;;;;;;5007259;28;20196;-75
2021/12/21 05:20:53;;;;;;;16.87;10.70;;;-1.20;99.90;;;;;;5024292;28;20206;-76
2021/12/21 05:23:20;;;;;;;14.57;10.40;;;-1.00;99.90;;;;;;5025128;28;20181;-77
2021/12/21 05:25:46;;;;;;;18.97;11.63;;;-1.40;99.90;;;;;;5024840;28;20245;-75
2021/12/21 05:28:14;;;;;;;18.57;11.70;;;-1.40;99.90;;;;;;5024851;28;20571;-76
2021/12/21 05:30:41;;;;;;;15.87;10.47;;;-1.10;99.90;;;;;;5025765;28;20215;-77
2021/12/21 05:33:07;;;;;;;14.13;10.50;;;-0.70;99.90;;;;;;5025480;28;20193;-76
2021/12/21 05:35:34;;;;;;;13.47;10.17;;;-1.30;99.90;;;;;;5025329;28;20238;-76
2021/12/21 05:38:03;;;;;;;15.47;10.03;;;-0.60;99.90;;;;;;5023658;28;20190;-76
2021/12/21 05:40:37;;;;;;;16.33;11.17;;;-1.30;99.90;;;;;;5016201;28;20205;-75
2021/12/21 05:43:04;;;;;;;15.53;10.97;;;-1.20;99.90;;;;;;5007865;28;20240;-76
2021/12/21 05:45:30;;;;;;;15.67;10.33;;;-1.30;99.90;;;;;;5025094;28;20171;-76
2021/12/21 05:47:56;;;;;;;15.47;10.40;;;-1.30;99.90;;;;;;5022591;28;20677;-76
2021/12/21 05:50:21;;;;;;;15.60;10.33;;;-1.30;99.90;;;;;;5025591;28;20201;-76
2021/12/21 05:52:48;;;;;;;15.80;10.63;;;-1.40;99.90;;;;;;5025666;28;20208;-76
2021/12/21 05:55:15;;;;;;;17.10;11.03;;;-1.40;99.90;;;;;;5025161;28;20178;-77
2021/12/21 05:57:41;;;;;;;17.83;10.93;;;-0.30;99.90;;;;;;5025613;28;20182;-76
2021/12/21 06:00:19;;;;;;;16.23;11.30;;;-1.10;99.90;;;;;;5024275;28;20622;-77
2021/12/21 06:02:44;;;;;;;13.50;11.40;;;-0.90;99.90;;;;;;5024489;28;20614;-77
2021/12/21 06:05:10;;;;;;;21.90;11.50;;;-1.40;99.90;;;;;;5025388;28;20193;-76
2021/12/21 06:07:36;;;;;;;15.43;11.10;;;-1.50;99.90;;;;;;5024771;28;20197;-76
2021/12/21 06:10:10;;;;;;;17.50;11.17;;;-1.30;99.90;;;;;;5017687;28;20199;-76
2021/12/21 06:25:54;;;;;;;18.13;11.27;;;-1.70;99.90;;;;;;5024271;28;20189;-78
2021/12/21 06:28:20;;;;;;;19.20;12.23;;;-1.70;99.90;;;;;;5010684;28;20185;-76
2021/12/21 06:30:46;;;;;;;19.63;11.80;;;-1.40;99.90;;;;;;5022994;28;20256;-76
2021/12/21 06:33:12;;;;;;;16.23;11.03;;;-1.80;99.90;;;;;;5006288;28;20552;-77
2021/12/21 06:35:38;;;;;;;20.90;12.60;;;-1.80;99.90;;;;;;5005788;28;20180;-76
2021/12/21 06:38:04;;;;;;;20.50;12.00;;;-1.80;99.90;;;;;;5022606;28;20183;-77
2021/12/21 06:40:31;;;;;;;19.40;11.57;;;-0.90;99.90;;;;;;5002845;28;20209;-76
2021/12/21 06:43:01;;;;;;;19.27;12.13;;;-1.60;99.90;;;;;;5006813;28;20179;-76
2021/12/21 06:53:25;;;;;;;35.37;15.87;;;-1.70;99.90;;;;;;5023585;28;20258;-77
2021/12/21 06:55:51;;;;;;;18.40;13.67;;;-0.90;99.90;;;;;;5006744;28;20257;-77
2021/12/21 06:58:17;;;;;;;23.63;14.27;;;-0.80;99.90;;;;;;5006604;28;20190;-76
2021/12/21 07:00:43;;;;;;;21.07;14.60;;;-1.60;99.90;;;;;;5023561;28;20213;-77
2021/12/21 07:03:10;;;;;;;25.80;14.47;;;-1.50;99.90;;;;;;5022571;28;20199;-77
2021/12/21 07:05:37;;;;;;;20.03;12.10;;;-1.40;99.90;;;;;;5007147;28;20192;-77
2021/12/21 07:08:04;;;;;;;17.73;11.53;;;-1.40;99.90;;;;;;5020431;28;20205;-76
2021/12/21 07:10:31;;;;;;;20.07;12.23;;;-1.40;99.90;;;;;;5021591;28;20202;-77
2021/12/21 07:18:29;;;;;;;20.00;13.00;;;-1.30;99.90;;;;;;5022079;28;20266;-75
2021/12/21 07:21:00;;;;;;;20.47;12.77;;;-1.30;99.90;;;;;;5006064;28;20211;-76
2021/12/21 07:23:26;;;;;;;16.20;12.77;;;-1.30;99.90;;;;;;5023489;28;20657;-77
2021/12/21 07:25:51;;;;;;;18.73;13.30;;;-1.20;99.90;;;;;;5022613;28;20182;-77
2021/12/21 07:28:17;;;;;;;19.20;13.83;;;-1.30;99.90;;;;;;5022277;28;20191;-75
2021/12/21 07:30:43;;;;;;;19.97;12.90;;;-1.30;99.90;;;;;;5022482;28;20279;-77
2021/12/21 07:33:09;;;;;;;20.00;12.57;;;-1.30;99.90;;;;;;5005846;28;20219;-77
2021/12/21 07:35:36;;;;;;;18.97;13.70;;;-1.30;99.90;;;;;;5022809;28;20192;-77
2021/12/21 07:38:01;;;;;;;23.50;13.07;;;-1.20;99.90;;;;;;5019848;28;20263;-77
2021/12/21 07:40:27;;;;;;;17.60;12.60;;;-1.20;99.90;;;;;;5017955;28;20237;-77
2021/12/21 07:42:52;;;;;;;19.77;12.50;;;-0.60;99.90;;;;;;5021491;28;20193;-77
2021/12/21 07:45:18;;;;;;;19.63;13.00;;;-0.80;99.90;;;;;;5023636;28;20211;-77
2021/12/21 07:47:44;;;;;;;22.77;13.23;;;-1.20;99.90;;;;;;5006417;28;20199;-77
2021/12/21 07:50:11;;;;;;;20.63;13.03;;;-1.20;99.90;;;;;;5023196;28;20206;-77
2021/12/21 07:52:36;;;;;;;23.40;13.63;;;-1.10;99.90;;;;;;5004923;28;20213;-77
2021/12/21 07:55:04;;;;;;;24.17;14.90;;;-1.20;99.90;;;;;;5021469;28;20190;-77
2021/12/21 07:57:31;;;;;;;17.47;12.60;;;-1.10;99.90;;;;;;5022611;28;20186;-77
2021/12/21 07:59:58;;;;;;;18.50;13.27;;;-1.20;99.90;;;;;;5022732;28;20213;-77
2021/12/21 08:02:26;;;;;;;23.83;13.23;;;-1.20;99.90;;;;;;5023506;28;20186;-76
2021/12/21 08:04:52;;;;;;;20.63;14.50;;;-0.50;99.90;;;;;;5006006;28;20272;-76
2021/12/21 08:07:23;;;;;;;21.97;14.17;;;-1.20;99.90;;;;;;5023689;28;20228;-76
2021/12/21 08:09:52;;;;;;;21.77;13.77;;;-1.20;99.90;;;;;;5023799;28;20193;-77
2021/12/21 08:12:19;;;;;;;27.40;14.37;;;-0.70;99.90;;;;;;5023660;28;20173;-76
2021/12/21 08:14:47;;;;;;;17.97;13.90;;;-1.30;99.90;;;;;;5023969;28;20182;-76
2021/12/21 08:17:14;;;;;;;22.90;14.97;;;-0.70;99.90;;;;;;5025323;28;20209;-76
2021/12/21 08:19:39;;;;;;;20.97;14.10;;;-1.20;99.90;;;;;;5028636;28;20194;-77
2021/12/21 08:22:06;;;;;;;20.53;13.57;;;-1.00;99.90;;;;;;5025926;28;20191;-77
2021/12/21 08:24:33;;;;;;;20.10;13.87;;;-1.20;99.90;;;;;;5025737;28;20180;-77
2021/12/21 08:26:59;;;;;;;21.70;12.90;;;-1.20;99.90;;;;;;5025242;28;20250;-77
2021/12/21 08:29:26;;;;;;;21.90;13.77;;;-1.10;99.90;;;;;;5008527;28;20221;-76
2021/12/21 08:31:52;;;;;;;24.67;13.33;;;-1.20;99.90;;;;;;5008376;28;20182;-77
2021/12/21 08:34:18;;;;;;;21.13;14.10;;;-1.20;99.90;;;;;;5025924;28;20181;-77
2021/12/21 08:36:44;;;;;;;23.97;13.47;;;-1.10;99.90;;;;;;5018517;28;20203;-76
2021/12/21 08:39:10;;;;;;;17.97;13.67;;;-1.00;99.90;;;;;;5008866;28;20195;-76
2021/12/21 08:41:41;;;;;;;20.33;13.70;;;-0.60;99.90;;;;;;5027115;28;20197;-76
2021/12/21 08:44:09;;;;;;;21.77;13.43;;;-1.20;99.90;;;;;;5009120;28;20184;-76
2021/12/21 08:46:35;;;;;;;21.77;13.70;;;-0.50;99.90;;;;;;5007644;28;20188;-75
2021/12/21 08:49:00;;;;;;;20.93;13.50;;;-1.20;99.90;;;;;;5025460;28;20233;-77
2021/12/21 08:51:26;;;;;;;26.67;14.07;;;-1.00;99.90;;;;;;5027849;28;20585;-75
2021/12/21 08:53:52;;;;;;;24.53;13.43;;;-0.40;99.90;;;;;;5007846;28;20182;-75
2021/12/21 08:56:17;;;;;;;23.17;14.73;;;-0.60;99.90;;;;;;5030578;28;20176;-76
2021/12/21 08:58:43;;;;;;;19.80;14.37;;;-1.00;99.90;;;;;;5027459;28;20242;-76
2021/12/21 09:01:09;;;;;;;23.53;13.97;;;-1.00;99.90;;;;;;5007076;28;20258;-77
2021/12/21 09:03:34;;;;;;;21.47;14.57;;;-0.90;99.90;;;;;;5005316;28;20221;-77
2021/12/21 09:06:01;;;;;;;16.73;12.43;;;-0.90;99.90;;;;;;5005374;28;20186;-77
2021/12/21 09:08:27;;;;;;;20.03;13.93;;;-0.80;99.90;;;;;;4995080;28;20206;-75
2021/12/21 09:10:53;;;;;;;27.10;15.03;;;-0.80;99.90;;;;;;5024366;28;20205;-76
2021/12/21 09:13:19;;;;;;;17.70;13.67;;;-0.80;99.90;;;;;;5024177;28;20175;-77
2021/12/21 09:15:45;;;;;;;20.77;14.13;;;-0.80;99.90;;;;;;5025052;28;20687;-76
2021/12/21 09:18:12;;;;;;;19.57;14.70;;;-0.70;99.90;;;;;;5036358;28;20301;-76
2021/12/21 09:20:38;;;;;;;21.07;14.17;;;0.00;99.90;;;;;;5005303;28;20682;-77
2021/12/21 09:23:03;;;;;;;22.37;14.73;;;-0.70;99.90;;;;;;5007543;28;20215;-76
2021/12/21 09:25:30;;;;;;;25.03;15.30;;;-0.30;99.90;;;;;;5010110;28;20184;-76
2021/12/21 09:27:57;;;;;;;21.10;15.07;;;-1.00;99.90;;;;;;5010484;28;20210;-77
2021/12/21 09:30:28;;;;;;;29.03;17.37;;;-0.60;99.90;;;;;;5010599;28;20647;-76
2021/12/21 09:32:54;;;;;;;27.93;18.07;;;-0.50;99.90;;;;;;4991364;28;20205;-76
2021/12/21 09:35:20;;;;;;;24.50;13.80;;;-0.60;99.90;;;;;;5007104;28;20179;-76
2021/12/21 09:37:46;;;;;;;22.87;15.07;;;-0.50;99.90;;;;;;4991616;28;20600;-77
2021/12/21 09:40:18;;;;;;;25.77;15.87;;;-0.50;99.90;;;;;;5018989;28;20284;-76
2021/12/21 09:42:45;;;;;;;23.80;14.70;;;-0.30;99.90;;;;;;5024798;28;20178;-76
2021/12/21 09:45:10;;;;;;;24.53;15.57;;;-0.70;99.90;;;;;;5025107;28;20201;-76
2021/12/21 09:47:36;;;;;;;22.03;14.23;;;-0.60;99.90;;;;;;5024923;28;20259;-77
2021/12/21 09:50:04;;;;;;;23.93;14.60;;;-0.60;99.90;;;;;;5024764;28;20575;-76
2021/12/21 09:52:32;;;;;;;22.33;15.40;;;-0.50;99.90;;;;;;5007960;28;20184;-76
2021/12/21 09:54:59;;;;;;;20.33;14.23;;;-0.50;99.90;;;;;;5024105;28;20202;-76
2021/12/21 09:57:25;;;;;;;18.93;12.93;;;-0.40;99.90;;;;;;5024656;28;20197;-77
2021/12/21 09:59:52;;;;;;;18.63;13.63;;;-0.50;99.90;;;;;;5025817;28;20575;-77
2021/12/21 10:02:20;;;;;;;23.33;14.43;;;-0.30;99.90;;;;;;5025223;28;20191;-76
2021/12/21 10:04:48;;;;;;;23.23;15.07;;;-0.50;99.90;;;;;;5024909;28;20182;-77
2021/12/21 10:07:15;;;;;;;21.40;15.03;;;-0.40;99.90;;;;;;5024839;28;20209;-76
2021/12/21 10:09:43;;;;;;;21.73;14.10;;;-0.50;99.90;;;;;;5006734;28;20197;-76
2021/12/21 10:12:34;;;;;;;20.70;14.17;;;-0.40;99.90;;;;;;5007688;28;20190;-76
2021/12/21 10:15:14;;;;;;;22.93;13.50;;;0.00;99.90;;;;;;5006826;28;20180;-76
2021/12/21 10:17:58;;;;;;;32.40;18.07;;;-0.40;99.90;;;;;;5000186;28;20249;-76
2021/12/21 10:20:37;;;;;;;31.27;16.97;;;-0.40;99.90;;;;;;5027415;28;20218;-76
2021/12/21 10:23:23;;;;;;;60.17;28.17;;;-0.40;99.90;;;;;;5020426;28;20649;-77
2021/12/21 10:26:02;;;;;;;24.47;15.53;;;-0.30;99.90;;;;;;5024562;28;20258;-75
2021/12/21 10:28:55;;;;;;;27.10;16.43;;;-0.30;99.90;;;;;;5023597;28;20213;-76
2021/12/21 10:31:36;;;;;;;61.37;25.90;;;-0.30;99.90;;;;;;5067010;23;20250;-74
2021/12/21 10:34:03;;;;;;;29.27;17.57;;;-0.30;99.90;;;;;;5033810;28;20249;-74
2021/12/21 10:36:30;;;;;;;33.43;17.93;;;-0.30;99.90;;;;;;5002560;28;20684;-73
2021/12/21 10:38:58;;;;;;;23.03;15.37;;;-0.40;99.90;;;;;;5012439;28;20209;-75
2021/12/21 10:41:36;;;;;;;19.60;13.73;;;-0.30;99.90;;;;;;5010191;28;20256;-74
2021/12/21 10:44:09;;;;;;;21.83;14.33;;;-0.20;99.90;;;;;;5004475;28;20187;-74
2021/12/21 10:46:42;;;;;;;24.00;13.33;;;-0.20;99.90;;;;;;5007826;28;20622;-75
2021/12/21 10:49:12;;;;;;;21.47;13.67;;;-0.20;99.90;;;;;;4993548;28;20203;-74
2021/12/21 10:51:50;;;;;;;19.70;12.83;;;-0.20;99.90;;;;;;5009919;28;20690;-74
2021/12/21 10:54:27;;;;;;;28.90;16.30;;;-0.10;99.90;;;;;;5009668;28;20174;-74
2021/12/21 10:57:04;;;;;;;27.20;16.67;;;0.00;99.90;;;;;;5010548;28;20541;-74
2021/12/21 10:59:36;;;;;;;25.40;13.00;;;0.00;99.90;;;;;;5009603;28;20186;-75
2021/12/21 11:02:08;;;;;;;22.20;13.57;;;0.00;99.90;;;;;;5005537;28;20648;-76
2021/12/21 11:04:35;;;;;;;18.17;14.10;;;0.00;99.90;;;;;;4977792;28;20179;-75
2021/12/21 11:07:29;;;;;;;22.77;14.60;;;0.00;99.90;;;;;;5005432;28;20184;-76
2021/12/21 11:10:01;;;;;;;23.73;14.67;;;0.00;99.90;;;;;;5009293;28;20202;-76
2021/12/21 11:12:28;;;;;;;21.70;14.73;;;0.10;99.90;;;;;;5006494;28;20183;-75
2021/12/21 11:14:57;;;;;;;25.53;15.10;;;0.00;99.90;;;;;;5007538;28;20209;-76
2021/12/21 11:17:23;;;;;;;23.77;15.87;;;0.00;99.90;;;;;;5010437;28;20602;-76
2021/12/21 11:19:53;;;;;;;22.17;16.00;;;0.10;99.90;;;;;;5002410;28;20650;-74
2021/12/21 11:22:21;;;;;;;16.77;13.53;;;0.10;99.90;;;;;;5013704;28;20253;-75
2021/12/21 11:24:48;;;;;;;19.30;13.30;;;0.20;99.90;;;;;;5008901;28;20183;-74
2021/12/21 11:27:15;;;;;;;19.97;13.40;;;0.30;99.90;;;;;;4989688;28;20191;-75
2021/12/21 11:29:43;;;;;;;24.57;15.27;;;0.20;99.90;;;;;;4995035;28;20175;-76
2021/12/21 11:32:11;;;;;;;20.17;14.27;;;0.20;99.90;;;;;;5007994;28;20221;-76
2021/12/21 11:34:56;;;;;;;18.70;13.90;;;0.30;99.90;;;;;;5009091;28;20261;-75
2021/12/21 11:37:23;;;;;;;22.13;14.53;;;0.20;99.90;;;;;;5003878;28;20254;-76
2021/12/21 11:39:49;;;;;;;25.73;15.67;;;0.20;99.90;;;;;;4990085;28;20640;-75
2021/12/21 11:42:56;;;;;;;24.70;16.23;;;0.20;99.90;;;;;;5008254;28;20217;-75
2021/12/21 11:45:41;;;;;;;23.23;15.07;;;0.30;99.90;;;;;;5004602;28;20203;-75
2021/12/21 11:48:09;;;;;;;23.67;15.53;;;0.30;99.90;;;;;;5001514;28;20245;-76
2021/12/21 11:50:37;;;;;;;20.37;15.10;;;0.30;99.90;;;;;;4993240;28;20199;-76
2021/12/21 11:53:08;;;;;;;22.60;15.13;;;0.30;99.90;;;;;;5011121;28;20183;-75
2021/12/21 11:55:38;;;;;;;19.13;13.80;;;0.30;99.90;;;;;;5009290;28;20187;-76
2021/12/21 11:58:38;;;;;;;23.60;15.77;;;0.40;99.90;;;;;;5009391;28;21237;-75
2021/12/21 12:01:17;;;;;;;23.60;14.53;;;0.30;99.90;;;;;;5001325;28;20706;-75
2021/12/21 12:04:04;;;;;;;30.00;18.13;;;0.20;99.90;;;;;;5007412;28;20190;-75
2021/12/21 12:06:45;;;;;;;28.97;18.07;;;0.20;99.90;;;;;;5008693;28;20183;-75
2021/12/21 12:09:20;;;;;;;26.03;16.27;;;0.10;99.90;;;;;;5002293;28;20577;-74
2021/12/21 12:11:46;;;;;;;24.83;15.50;;;0.10;99.90;;;;;;4998892;28;20198;-75
2021/12/21 12:14:15;;;;;;;27.20;15.87;;;0.10;99.90;;;;;;5005752;28;20175;-76
2021/12/21 12:16:43;;;;;;;21.30;15.27;;;0.10;99.90;;;;;;4990370;28;20179;-76
2021/12/21 12:19:15;;;;;;;26.87;15.83;;;0.00;99.90;;;;;;5004272;28;20194;-74
2021/12/21 12:22:03;;;;;;;29.00;16.93;;;0.00;99.90;;;;;;4993469;28;20333;-75
2021/12/21 12:24:42;;;;;;;23.07;13.40;;;0.00;99.90;;;;;;5008096;28;20187;-75
2021/12/21 12:27:10;;;;;;;26.80;15.53;;;0.00;99.90;;;;;;5004097;28;20210;-76
2021/12/21 12:29:50;;;;;;;38.90;25.67;;;-0.10;99.90;;;;;;5006223;28;20179;-75
2021/12/21 12:32:28;;;;;;;21.20;14.03;;;-0.10;99.90;;;;;;5010572;28;20209;-75
2021/12/21 12:35:08;;;;;;;19.97;14.57;;;-0.20;99.90;;;;;;5007404;28;20171;-74
2021/12/21 12:38:06;;;;;;;22.93;15.87;;;-0.10;99.90;;;;;;5008657;28;20183;-74
2021/12/21 12:40:40;;;;;;;26.47;17.13;;;-0.10;99.90;;;;;;4955257;28;20222;-74
2021/12/21 12:43:12;;;;;;;21.00;15.13;;;0.00;99.90;;;;;;4998010;28;20648;-75
2021/12/21 12:45:43;;;;;;;25.47;15.33;;;0.10;99.90;;;;;;4989873;28;20179;-74
2021/12/21 12:48:25;;;;;;;20.90;14.17;;;0.10;99.90;;;;;;5009696;28;20195;-75
2021/12/21 12:50:53;;;;;;;28.80;16.63;;;0.00;99.90;;;;;;5004119;28;20201;-75
2021/12/21 12:53:19;;;;;;;22.03;14.23;;;0.10;99.90;;;;;;5013274;28;20175;-75
2021/12/21 12:55:52;;;;;;;23.70;14.23;;;0.00;99.90;;;;;;5010771;28;20604;-75
2021/12/21 12:58:20;;;;;;;28.17;15.27;;;0.00;99.90;;;;;;5007214;28;20178;-74
2021/12/21 13:00:57;;;;;;;19.30;14.27;;;0.00;99.90;;;;;;4991857;28;20245;-75
2021/12/21 13:03:43;;;;;;;21.60;14.47;;;0.00;99.90;;;;;;5005270;28;20183;-74
2021/12/21 13:06:17;;;;;;;19.63;13.53;;;0.00;99.90;;;;;;5003364;28;20195;-75
2021/12/21 13:08:45;;;;;;;19.17;14.40;;;0.00;99.90;;;;;;5014904;28;20539;-75
2021/12/21 13:11:12;;;;;;;23.13;14.53;;;0.00;99.90;;;;;;5004909;28;20260;-74
2021/12/21 13:13:43;;;;;;;20.80;13.37;;;0.10;99.90;;;;;;5016911;28;20175;-75
2021/12/21 13:16:10;;;;;;;20.93;14.07;;;0.10;99.90;;;;;;4995325;28;20225;-74
2021/12/21 13:18:47;;;;;;;21.47;14.47;;;0.10;99.90;;;;;;5017108;28;20673;-74
2021/12/21 13:21:22;;;;;;;25.13;14.60;;;0.20;99.90;;;;;;5005764;28;20734;-74
2021/12/21 13:23:51;;;;;;;22.47;14.27;;;0.20;99.90;;;;;;5008877;28;20186;-75
2021/12/21 13:26:23;;;;;;;17.03;13.93;;;0.30;99.90;;;;;;5013792;28;20654;-74
2021/12/21 13:28:51;;;;;;;18.70;13.10;;;0.20;99.90;;;;;;5023917;28;20694;-75
2021/12/21 13:31:19;;;;;;;20.47;13.63;;;0.40;99.90;;;;;;5004762;28;20578;-75
2021/12/21 13:33:51;;;;;;;23.27;13.67;;;0.10;99.90;;;;;;5004640;28;20947;-75
2021/12/21 13:36:17;;;;;;;22.77;14.20;;;0.10;99.90;;;;;;5015526;28;20166;-75
2021/12/21 13:38:42;;;;;;;19.77;14.67;;;0.10;99.90;;;;;;5008912;28;20190;-75
2021/12/21 13:41:16;;;;;;;20.70;14.43;;;0.20;99.90;;;;;;4990281;28;20213;-75
2021/12/21 13:44:00;;;;;;;21.33;14.13;;;0.20;99.90;;;;;;5000624;28;20550;-75